sensor_id;sensor_type;location;lat;lon;timestamp;pressure;altitude;pressure_sealevel;temperature;humidity
28648;BME280;17137;51.494;-0.262;2023-07-31T00:00:00;50087.41;;;-145.72;100.00
28648;BME280;17137;51.494;-0.262;2023-07-31T00:00:30;50082.23;;;-145.72;100.00
28648;BME280;17137;51.494;-0.262;2023-07-31T00:01:00;50090.86;;;-145.72;100.00
28648;BME280;17137;51.494;-0.262;2023-07-31T00:01:31;50085.68;;;-145.72;100.00
28648;BME280;17137;51.494;-0.262;2023-07-31T00:02:01;50087.04;;;-145.72;100.00
28648;BME280;17137;51.494;-0.262;2023-07-31T00:02:32;50096.53;;;-145.72;100.00
28648;BME280;17137;51.494;-0.262;2023-07-31T00:03:02;50097.64;;;-145.72;100.00
28648;BME280;17137;51.494;-0.262;2023-07-31T00:03:32;50096.41;;;-145.72;100.00
28648;BME280;17137;51.494;-0.262;2023-07-31T00:04:03;50097.14;;;-145.72;100.00
28648;BME280;17137;51.494;-0.262;2023-07-31T00:04:33;50091.47;;;-145.72;100.00
28648;BME280;17137;51.494;-0.262;2023-07-31T00:05:04;50097.14;;;-145.72;100.00
28648;BME280;17137;51.494;-0.262;2023-07-31T00:05:35;50090.73;;;-145.72;100.00
28648;BME280;17137;51.494;-0.262;2023-07-31T00:06:05;50102.94;;;-145.72;100.00
28648;BME280;17137;51.494;-0.262;2023-07-31T00:06:35;50099.49;;;-145.72;100.00
28648;BME280;17137;51.494;-0.262;2023-07-31T00:07:06;50088.89;;;-145.72;100.00
28648;BME280;17137;51.494;-0.262;2023-07-31T00:07:36;50092.34;;;-145.72;100.00
28648;BME280;17137;51.494;-0.262;2023-07-31T00:08:06;50100.47;;;-145.72;100.00
28648;BME280;17137;51.494;-0.262;2023-07-31T00:08:36;50100.97;;;-145.72;100.00
28648;BME280;17137;51.494;-0.262;2023-07-31T00:09:07;50095.17;;;-145.72;100.00
28648;BME280;17137;51.494;-0.262;2023-07-31T00:09:37;50099.49;;;-145.72;100.00
28648;BME280;17137;51.494;-0.262;2023-07-31T00:10:08;50099.86;;;-145.72;100.00
28648;BME280;17137;51.494;-0.262;2023-07-31T00:10:38;50083.71;;;-145.72;100.00
28648;BME280;17137;51.494;-0.262;2023-07-31T00:11:08;50092.83;;;-145.72;100.00
28648;BME280;17137;51.494;-0.262;2023-07-31T00:11:39;50097.27;;;-145.72;100.00
28648;BME280;17137;51.494;-0.262;2023-07-31T00:12:09;50085.93;;;-145.72;100.00
28648;BME280;17137;51.494;-0.262;2023-07-31T00:12:41;50090.73;;;-145.72;100.00
28648;BME280;17137;51.494;-0.262;2023-07-31T00:13:12;50096.04;;;-145.72;100.00
28648;BME280;17137;51.494;-0.262;2023-07-31T00:13:42;50108.12;;;-145.72;100.00
28648;BME280;17137;51.494;-0.262;2023-07-31T00:14:12;50102.94;;;-145.72;100.00
28648;BME280;17137;51.494;-0.262;2023-07-31T00:14:43;50105.16;;;-145.72;100.00
28648;BME280;17137;51.494;-0.262;2023-07-31T00:15:14;50111.57;;;-145.72;100.00
28648;BME280;17137;51.494;-0.262;2023-07-31T00:15:44;50109.59;;;-145.72;100.00
28648;BME280;17137;51.494;-0.262;2023-07-31T00:16:14;50101.83;;;-145.72;100.00
28648;BME280;17137;51.494;-0.262;2023-07-31T00:16:45;50101.46;;;-145.72;100.00
28648;BME280;17137;51.494;-0.262;2023-07-31T00:17:22;50104.17;;;-145.72;100.00
28648;BME280;17137;51.494;-0.262;2023-07-31T00:17:52;50104.91;;;-145.72;100.00
28648;BME280;17137;51.494;-0.262;2023-07-31T00:18:23;50112.18;;;-145.72;100.00
28648;BME280;17137;51.494;-0.262;2023-07-31T00:18:53;50109.10;;;-145.72;100.00
28648;BME280;17137;51.494;-0.262;2023-07-31T00:19:28;50113.42;;;-145.72;100.00
28648;BME280;17137;51.494;-0.262;2023-07-31T00:19:59;50115.63;;;-145.72;100.00
28648;BME280;17137;51.494;-0.262;2023-07-31T00:20:29;50101.95;;;-145.72;100.00
28648;BME280;17137;51.494;-0.262;2023-07-31T00:21:00;50102.57;;;-145.72;100.00
28648;BME280;17137;51.494;-0.262;2023-07-31T00:21:30;50109.10;;;-145.72;100.00
28648;BME280;17137;51.494;-0.262;2023-07-31T00:22:00;50115.51;;;-145.72;100.00
28648;BME280;17137;51.494;-0.262;2023-07-31T00:22:31;50105.28;;;-145.72;100.00
28648;BME280;17137;51.494;-0.262;2023-07-31T00:23:01;50105.40;;;-145.72;100.00
28648;BME280;17137;51.494;-0.262;2023-07-31T00:23:36;50112.43;;;-145.72;100.00
28648;BME280;17137;51.494;-0.262;2023-07-31T00:24:06;50109.47;;;-145.72;100.00
28648;BME280;17137;51.494;-0.262;2023-07-31T00:24:37;50098.99;;;-145.72;100.00
28648;BME280;17137;51.494;-0.262;2023-07-31T00:25:07;50112.80;;;-145.72;100.00
28648;BME280;17137;51.494;-0.262;2023-07-31T00:25:38;50103.31;;;-145.72;100.00
28648;BME280;17137;51.494;-0.262;2023-07-31T00:26:08;50104.17;;;-145.72;100.00
28648;BME280;17137;51.494;-0.262;2023-07-31T00:26:38;50100.72;;;-145.72;100.00
28648;BME280;17137;51.494;-0.262;2023-07-31T00:27:08;50094.43;;;-145.72;100.00
28648;BME280;17137;51.494;-0.262;2023-07-31T00:27:39;50100.72;;;-145.72;100.00
28648;BME280;17137;51.494;-0.262;2023-07-31T00:28:09;50096.65;;;-145.72;100.00
28648;BME280;17137;51.494;-0.262;2023-07-31T00:28:40;50112.68;;;-145.72;100.00
28648;BME280;17137;51.494;-0.262;2023-07-31T00:29:10;50108.24;;;-145.72;100.00
28648;BME280;17137;51.494;-0.262;2023-07-31T00:29:41;50106.51;;;-145.72;100.00
28648;BME280;17137;51.494;-0.262;2023-07-31T00:30:11;50109.84;;;-145.72;100.00
28648;BME280;17137;51.494;-0.262;2023-07-31T00:30:42;50102.44;;;-145.72;100.00
28648;BME280;17137;51.494;-0.262;2023-07-31T00:31:12;50104.91;;;-145.72;100.00
28648;BME280;17137;51.494;-0.262;2023-07-31T00:31:42;50104.91;;;-145.72;100.00
28648;BME280;17137;51.494;-0.262;2023-07-31T00:32:12;50111.44;;;-145.72;100.00
28648;BME280;17137;51.494;-0.262;2023-07-31T00:32:43;50104.79;;;-145.72;100.00
28648;BME280;17137;51.494;-0.262;2023-07-31T00:33:13;50104.66;;;-145.72;100.00
28648;BME280;17137;51.494;-0.262;2023-07-31T00:33:43;50118.22;;;-145.72;100.00
28648;BME280;17137;51.494;-0.262;2023-07-31T00:34:14;50118.35;;;-145.72;100.00
28648;BME280;17137;51.494;-0.262;2023-07-31T00:34:44;50110.09;;;-145.72;100.00
28648;BME280;17137;51.494;-0.262;2023-07-31T00:35:14;50107.50;;;-145.72;100.00
28648;BME280;17137;51.494;-0.262;2023-07-31T00:35:45;50107.99;;;-145.72;100.00
28648;BME280;17137;51.494;-0.262;2023-07-31T00:36:15;50116.25;;;-145.72;100.00
28648;BME280;17137;51.494;-0.262;2023-07-31T00:36:45;50114.15;;;-145.72;100.00
28648;BME280;17137;51.494;-0.262;2023-07-31T00:37:16;50114.03;;;-145.72;100.00
28648;BME280;17137;51.494;-0.262;2023-07-31T00:37:46;50112.68;;;-145.72;100.00
28648;BME280;17137;51.494;-0.262;2023-07-31T00:38:16;50098.38;;;-145.72;100.00
28648;BME280;17137;51.494;-0.262;2023-07-31T00:38:46;50110.33;;;-145.72;100.00
28648;BME280;17137;51.494;-0.262;2023-07-31T00:39:17;50108.36;;;-145.72;100.00
28648;BME280;17137;51.494;-0.262;2023-07-31T00:39:47;50119.21;;;-145.72;100.00
28648;BME280;17137;51.494;-0.262;2023-07-31T00:40:17;50115.76;;;-145.72;100.00
28648;BME280;17137;51.494;-0.262;2023-07-31T00:40:48;50103.80;;;-145.72;100.00
28648;BME280;17137;51.494;-0.262;2023-07-31T00:41:18;50100.72;;;-145.72;100.00
28648;BME280;17137;51.494;-0.262;2023-07-31T00:41:48;50104.66;;;-145.72;100.00
28648;BME280;17137;51.494;-0.262;2023-07-31T00:42:19;50105.28;;;-145.72;100.00
28648;BME280;17137;51.494;-0.262;2023-07-31T00:42:50;50106.51;;;-145.72;100.00
28648;BME280;17137;51.494;-0.262;2023-07-31T00:43:20;50113.79;;;-145.72;100.00
28648;BME280;17137;51.494;-0.262;2023-07-31T00:43:50;50101.34;;;-145.72;100.00
28648;BME280;17137;51.494;-0.262;2023-07-31T00:44:21;50116.62;;;-145.72;100.00
28648;BME280;17137;51.494;-0.262;2023-07-31T00:44:51;50102.69;;;-145.72;100.00
28648;BME280;17137;51.494;-0.262;2023-07-31T00:45:22;50107.25;;;-145.72;100.00
28648;BME280;17137;51.494;-0.262;2023-07-31T00:45:53;50121.18;;;-145.72;100.00
28648;BME280;17137;51.494;-0.262;2023-07-31T00:46:24;50121.80;;;-145.72;100.00
28648;BME280;17137;51.494;-0.262;2023-07-31T00:46:56;50107.75;;;-145.72;100.00
28648;BME280;17137;51.494;-0.262;2023-07-31T00:47:26;50109.35;;;-145.72;100.00
28648;BME280;17137;51.494;-0.262;2023-07-31T00:47:57;50104.05;;;-145.72;100.00
28648;BME280;17137;51.494;-0.262;2023-07-31T00:48:28;50106.27;;;-145.72;100.00
28648;BME280;17137;51.494;-0.262;2023-07-31T00:48:59;50101.09;;;-145.72;100.00
28648;BME280;17137;51.494;-0.262;2023-07-31T00:49:29;50100.72;;;-145.72;100.00
28648;BME280;17137;51.494;-0.262;2023-07-31T00:50:00;50106.64;;;-145.72;100.00
28648;BME280;17137;51.494;-0.262;2023-07-31T00:50:30;50095.05;;;-145.72;100.00
28648;BME280;17137;51.494;-0.262;2023-07-31T00:51:01;50110.58;;;-145.72;100.00
28648;BME280;17137;51.494;-0.262;2023-07-31T00:51:31;50116.87;;;-145.72;100.00
28648;BME280;17137;51.494;-0.262;2023-07-31T00:52:02;50097.76;;;-145.72;100.00
28648;BME280;17137;51.494;-0.262;2023-07-31T00:52:32;50117.48;;;-145.72;100.00
28648;BME280;17137;51.494;-0.262;2023-07-31T00:53:03;50106.51;;;-145.72;100.00
28648;BME280;17137;51.494;-0.262;2023-07-31T00:53:34;50102.94;;;-145.72;100.00
28648;BME280;17137;51.494;-0.262;2023-07-31T00:54:06;50114.28;;;-145.72;100.00
28648;BME280;17137;51.494;-0.262;2023-07-31T00:54:36;50107.38;;;-145.72;100.00
28648;BME280;17137;51.494;-0.262;2023-07-31T00:55:08;50111.81;;;-145.72;100.00
28648;BME280;17137;51.494;-0.262;2023-07-31T00:55:38;50099.36;;;-145.72;100.00
28648;BME280;17137;51.494;-0.262;2023-07-31T00:56:09;50107.25;;;-145.72;100.00
28648;BME280;17137;51.494;-0.262;2023-07-31T00:56:41;50114.03;;;-145.72;100.00
28648;BME280;17137;51.494;-0.262;2023-07-31T00:57:11;50110.83;;;-145.72;100.00
28648;BME280;17137;51.494;-0.262;2023-07-31T00:57:42;50106.76;;;-145.72;100.00
28648;BME280;17137;51.494;-0.262;2023-07-31T00:58:12;50102.57;;;-145.72;100.00
28648;BME280;17137;51.494;-0.262;2023-07-31T00:58:43;50116.00;;;-145.72;100.00
28648;BME280;17137;51.494;-0.262;2023-07-31T00:59:13;50108.36;;;-145.72;100.00
28648;BME280;17137;51.494;-0.262;2023-07-31T00:59:43;50115.88;;;-145.72;100.00
28648;BME280;17137;51.494;-0.262;2023-07-31T01:00:13;50110.21;;;-145.72;100.00
28648;BME280;17137;51.494;-0.262;2023-07-31T01:00:44;50103.80;;;-145.72;100.00
28648;BME280;17137;51.494;-0.262;2023-07-31T01:01:14;50106.88;;;-145.72;100.00
28648;BME280;17137;51.494;-0.262;2023-07-31T01:01:44;50101.95;;;-145.72;100.00
28648;BME280;17137;51.494;-0.262;2023-07-31T01:02:15;50111.44;;;-145.72;100.00
28648;BME280;17137;51.494;-0.262;2023-07-31T01:02:46;50098.01;;;-145.72;100.00
28648;BME280;17137;51.494;-0.262;2023-07-31T01:03:17;50097.76;;;-145.72;100.00
28648;BME280;17137;51.494;-0.262;2023-07-31T01:03:48;50096.53;;;-145.72;100.00
28648;BME280;17137;51.494;-0.262;2023-07-31T01:04:20;50098.62;;;-145.72;100.00
28648;BME280;17137;51.494;-0.262;2023-07-31T01:04:52;50091.23;;;-145.72;100.00
28648;BME280;17137;51.494;-0.262;2023-07-31T01:05:28;50089.13;;;-145.72;100.00
28648;BME280;17137;51.494;-0.262;2023-07-31T01:06:08;50087.90;;;-145.72;100.00
28648;BME280;17137;51.494;-0.262;2023-07-31T01:06:48;50085.06;;;-145.72;100.00
28648;BME280;17137;51.494;-0.262;2023-07-31T01:07:22;50082.97;;;-145.72;100.00
28648;BME280;17137;51.494;-0.262;2023-07-31T01:08:02;50087.65;;;-145.72;100.00
28648;BME280;17137;51.494;-0.262;2023-07-31T01:08:40;50088.02;;;-145.72;100.00
28648;BME280;17137;51.494;-0.262;2023-07-31T01:09:21;50083.83;;;-145.72;100.00
28648;BME280;17137;51.494;-0.262;2023-07-31T01:10:04;50082.11;;;-145.72;100.00
28648;BME280;17137;51.494;-0.262;2023-07-31T01:10:46;50094.31;;;-145.72;100.00
28648;BME280;17137;51.494;-0.262;2023-07-31T01:11:24;50093.45;;;-145.72;100.00
28648;BME280;17137;51.494;-0.262;2023-07-31T01:12:00;50090.49;;;-145.72;100.00
28648;BME280;17137;51.494;-0.262;2023-07-31T01:12:31;50090.61;;;-145.72;100.00
28648;BME280;17137;51.494;-0.262;2023-07-31T01:13:02;50090.49;;;-145.72;100.00
28648;BME280;17137;51.494;-0.262;2023-07-31T01:13:33;50087.65;;;-145.72;100.00
28648;BME280;17137;51.494;-0.262;2023-07-31T01:14:04;50091.97;;;-145.72;100.00
28648;BME280;17137;51.494;-0.262;2023-07-31T01:14:34;50086.54;;;-145.72;100.00
28648;BME280;17137;51.494;-0.262;2023-07-31T01:15:06;50094.80;;;-145.72;100.00
28648;BME280;17137;51.494;-0.262;2023-07-31T01:15:37;50085.06;;;-145.72;100.00
28648;BME280;17137;51.494;-0.262;2023-07-31T01:16:08;50079.39;;;-145.72;100.00
28648;BME280;17137;51.494;-0.262;2023-07-31T01:16:38;50083.46;;;-145.72;100.00
28648;BME280;17137;51.494;-0.262;2023-07-31T01:17:08;50084.45;;;-145.72;100.00
28648;BME280;17137;51.494;-0.262;2023-07-31T01:17:39;50082.23;;;-145.72;100.00
28648;BME280;17137;51.494;-0.262;2023-07-31T01:18:09;50074.59;;;-145.72;100.00
28648;BME280;17137;51.494;-0.262;2023-07-31T01:18:40;50078.90;;;-145.72;100.00
28648;BME280;17137;51.494;-0.262;2023-07-31T01:19:11;50080.01;;;-145.72;100.00
28648;BME280;17137;51.494;-0.262;2023-07-31T01:19:44;50079.52;;;-145.72;100.00
28648;BME280;17137;51.494;-0.262;2023-07-31T01:20:18;50087.28;;;-145.72;100.00
28648;BME280;17137;51.494;-0.262;2023-07-31T01:20:57;50094.43;;;-145.72;100.00
28648;BME280;17137;51.494;-0.262;2023-07-31T01:21:48;50077.92;;;-145.72;100.00
28648;BME280;17137;51.494;-0.262;2023-07-31T01:22:53;50093.08;;;-145.72;100.00
28648;BME280;17137;51.494;-0.262;2023-07-31T01:24:35;50095.05;;;-145.72;100.00
28648;BME280;17137;51.494;-0.262;2023-07-31T01:25:19;50095.91;;;-145.72;100.00
28648;BME280;17137;51.494;-0.262;2023-07-31T01:25:59;50098.01;;;-145.72;100.00
28648;BME280;17137;51.494;-0.262;2023-07-31T01:26:34;50085.56;;;-145.72;100.00
28648;BME280;17137;51.494;-0.262;2023-07-31T01:27:10;50091.35;;;-145.72;100.00
28648;BME280;17137;51.494;-0.262;2023-07-31T01:27:46;50088.76;;;-145.72;100.00
28648;BME280;17137;51.494;-0.262;2023-07-31T01:28:25;50097.88;;;-145.72;100.00
28648;BME280;17137;51.494;-0.262;2023-07-31T01:29:03;50093.94;;;-145.72;100.00
28648;BME280;17137;51.494;-0.262;2023-07-31T01:29:41;50089.13;;;-145.72;100.00
28648;BME280;17137;51.494;-0.262;2023-07-31T01:30:18;50101.46;;;-145.72;100.00
28648;BME280;17137;51.494;-0.262;2023-07-31T01:30:53;50085.31;;;-145.72;100.00
28648;BME280;17137;51.494;-0.262;2023-07-31T01:31:26;50085.56;;;-145.72;100.00
28648;BME280;17137;51.494;-0.262;2023-07-31T01:31:57;50084.70;;;-145.72;100.00
28648;BME280;17137;51.494;-0.262;2023-07-31T01:32:31;50094.43;;;-145.72;100.00
28648;BME280;17137;51.494;-0.262;2023-07-31T01:33:03;50071.63;;;-145.72;100.00
28648;BME280;17137;51.494;-0.262;2023-07-31T01:33:34;50077.55;;;-145.72;100.00
28648;BME280;17137;51.494;-0.262;2023-07-31T01:34:06;50079.27;;;-145.72;100.00
28648;BME280;17137;51.494;-0.262;2023-07-31T01:34:37;50081.61;;;-145.72;100.00
28648;BME280;17137;51.494;-0.262;2023-07-31T01:35:09;50096.41;;;-145.72;100.00
28648;BME280;17137;51.494;-0.262;2023-07-31T01:35:41;50083.96;;;-145.72;100.00
28648;BME280;17137;51.494;-0.262;2023-07-31T01:36:13;50085.19;;;-145.72;100.00
28648;BME280;17137;51.494;-0.262;2023-07-31T01:36:44;50082.35;;;-145.72;100.00
28648;BME280;17137;51.494;-0.262;2023-07-31T01:37:14;50085.06;;;-145.72;100.00
28648;BME280;17137;51.494;-0.262;2023-07-31T01:37:45;50090.73;;;-145.72;100.00
28648;BME280;17137;51.494;-0.262;2023-07-31T01:38:15;50074.71;;;-145.72;100.00
28648;BME280;17137;51.494;-0.262;2023-07-31T01:38:50;50090.12;;;-145.72;100.00
28648;BME280;17137;51.494;-0.262;2023-07-31T01:39:20;50089.87;;;-145.72;100.00
28648;BME280;17137;51.494;-0.262;2023-07-31T01:39:52;50092.46;;;-145.72;100.00
28648;BME280;17137;51.494;-0.262;2023-07-31T01:40:22;50088.52;;;-145.72;100.00
28648;BME280;17137;51.494;-0.262;2023-07-31T01:40:53;50091.47;;;-145.72;100.00
28648;BME280;17137;51.494;-0.262;2023-07-31T01:41:23;50093.82;;;-145.72;100.00
28648;BME280;17137;51.494;-0.262;2023-07-31T01:41:54;50097.02;;;-145.72;100.00
28648;BME280;17137;51.494;-0.262;2023-07-31T01:42:24;50082.60;;;-145.72;100.00
28648;BME280;17137;51.494;-0.262;2023-07-31T01:42:54;50102.08;;;-145.72;100.00
28648;BME280;17137;51.494;-0.262;2023-07-31T01:43:25;50095.30;;;-145.72;100.00
28648;BME280;17137;51.494;-0.262;2023-07-31T01:43:55;50098.38;;;-145.72;100.00
28648;BME280;17137;51.494;-0.262;2023-07-31T01:44:26;50105.16;;;-145.72;100.00
28648;BME280;17137;51.494;-0.262;2023-07-31T01:44:56;50097.76;;;-145.72;100.00
28648;BME280;17137;51.494;-0.262;2023-07-31T01:45:26;50099.24;;;-145.72;100.00
28648;BME280;17137;51.494;-0.262;2023-07-31T01:45:57;50096.77;;;-145.72;100.00
28648;BME280;17137;51.494;-0.262;2023-07-31T01:46:27;50082.23;;;-145.72;100.00
28648;BME280;17137;51.494;-0.262;2023-07-31T01:46:57;50090.12;;;-145.72;100.00
28648;BME280;17137;51.494;-0.262;2023-07-31T01:47:27;50092.46;;;-145.72;100.00
28648;BME280;17137;51.494;-0.262;2023-07-31T01:47:58;50096.28;;;-145.72;100.00
28648;BME280;17137;51.494;-0.262;2023-07-31T01:48:28;50087.53;;;-145.72;100.00
28648;BME280;17137;51.494;-0.262;2023-07-31T01:48:58;50104.05;;;-145.72;100.00
28648;BME280;17137;51.494;-0.262;2023-07-31T01:49:28;50100.47;;;-145.72;100.00
28648;BME280;17137;51.494;-0.262;2023-07-31T01:49:59;50090.37;;;-145.72;100.00
28648;BME280;17137;51.494;-0.262;2023-07-31T01:50:29;50107.25;;;-145.72;100.00
28648;BME280;17137;51.494;-0.262;2023-07-31T01:51:00;50101.21;;;-145.72;100.00
28648;BME280;17137;51.494;-0.262;2023-07-31T01:51:31;50094.80;;;-145.72;100.00
28648;BME280;17137;51.494;-0.262;2023-07-31T01:52:01;50080.26;;;-145.72;100.00
28648;BME280;17137;51.494;-0.262;2023-07-31T01:52:31;50082.60;;;-145.72;100.00
28648;BME280;17137;51.494;-0.262;2023-07-31T01:53:01;50089.63;;;-145.72;100.00
28648;BME280;17137;51.494;-0.262;2023-07-31T01:53:32;50098.75;;;-145.72;100.00
28648;BME280;17137;51.494;-0.262;2023-07-31T01:54:03;50085.93;;;-145.72;100.00
28648;BME280;17137;51.494;-0.262;2023-07-31T01:54:33;50097.39;;;-145.72;100.00
28648;BME280;17137;51.494;-0.262;2023-07-31T01:55:04;50106.64;;;-145.72;100.00
28648;BME280;17137;51.494;-0.262;2023-07-31T01:55:34;50094.80;;;-145.72;100.00
28648;BME280;17137;51.494;-0.262;2023-07-31T01:56:05;50091.10;;;-145.72;100.00
28648;BME280;17137;51.494;-0.262;2023-07-31T01:56:35;50095.17;;;-145.72;100.00
28648;BME280;17137;51.494;-0.262;2023-07-31T01:57:06;50086.42;;;-145.72;100.00
28648;BME280;17137;51.494;-0.262;2023-07-31T01:57:37;50096.04;;;-145.72;100.00
28648;BME280;17137;51.494;-0.262;2023-07-31T01:58:07;50091.72;;;-145.72;100.00
28648;BME280;17137;51.494;-0.262;2023-07-31T01:58:37;50100.72;;;-145.72;100.00
28648;BME280;17137;51.494;-0.262;2023-07-31T01:59:07;50095.91;;;-145.72;100.00
28648;BME280;17137;51.494;-0.262;2023-07-31T01:59:38;50094.56;;;-145.72;100.00
28648;BME280;17137;51.494;-0.262;2023-07-31T02:00:09;50088.64;;;-145.72;100.00
28648;BME280;17137;51.494;-0.262;2023-07-31T02:00:39;50086.05;;;-145.72;100.00
28648;BME280;17137;51.494;-0.262;2023-07-31T02:01:09;50092.46;;;-145.72;100.00
28648;BME280;17137;51.494;-0.262;2023-07-31T02:01:40;50096.28;;;-145.72;100.00
28648;BME280;17137;51.494;-0.262;2023-07-31T02:02:11;50091.47;;;-145.72;100.00
28648;BME280;17137;51.494;-0.262;2023-07-31T02:02:41;50084.57;;;-145.72;100.00
28648;BME280;17137;51.494;-0.262;2023-07-31T02:03:11;50082.11;;;-145.72;100.00
28648;BME280;17137;51.494;-0.262;2023-07-31T02:03:41;50087.65;;;-145.72;100.00
28648;BME280;17137;51.494;-0.262;2023-07-31T02:04:12;50096.53;;;-145.72;100.00
28648;BME280;17137;51.494;-0.262;2023-07-31T02:04:42;50085.19;;;-145.72;100.00
28648;BME280;17137;51.494;-0.262;2023-07-31T02:05:12;50094.56;;;-145.72;100.00
28648;BME280;17137;51.494;-0.262;2023-07-31T02:05:44;50097.51;;;-145.72;100.00
28648;BME280;17137;51.494;-0.262;2023-07-31T02:06:15;50085.56;;;-145.72;100.00
28648;BME280;17137;51.494;-0.262;2023-07-31T02:06:45;50085.56;;;-145.72;100.00
28648;BME280;17137;51.494;-0.262;2023-07-31T02:07:15;50077.79;;;-145.72;100.00
28648;BME280;17137;51.494;-0.262;2023-07-31T02:07:45;50093.82;;;-145.72;100.00
28648;BME280;17137;51.494;-0.262;2023-07-31T02:08:16;50085.43;;;-145.72;100.00
28648;BME280;17137;51.494;-0.262;2023-07-31T02:08:46;50082.60;;;-145.72;100.00
28648;BME280;17137;51.494;-0.262;2023-07-31T02:09:17;50086.67;;;-145.72;100.00
28648;BME280;17137;51.494;-0.262;2023-07-31T02:09:47;50074.83;;;-145.72;100.00
28648;BME280;17137;51.494;-0.262;2023-07-31T02:10:17;50090.00;;;-145.72;100.00
28648;BME280;17137;51.494;-0.262;2023-07-31T02:10:48;50092.34;;;-145.72;100.00
28648;BME280;17137;51.494;-0.262;2023-07-31T02:11:18;50080.38;;;-145.72;100.00
28648;BME280;17137;51.494;-0.262;2023-07-31T02:11:49;50083.59;;;-145.72;100.00
28648;BME280;17137;51.494;-0.262;2023-07-31T02:12:19;50095.54;;;-145.72;100.00
28648;BME280;17137;51.494;-0.262;2023-07-31T02:12:50;50079.64;;;-145.72;100.00
28648;BME280;17137;51.494;-0.262;2023-07-31T02:13:20;50079.64;;;-145.72;100.00
28648;BME280;17137;51.494;-0.262;2023-07-31T02:13:50;50074.46;;;-145.72;100.00
28648;BME280;17137;51.494;-0.262;2023-07-31T02:14:21;50094.31;;;-145.72;100.00
28648;BME280;17137;51.494;-0.262;2023-07-31T02:14:51;50089.01;;;-145.72;100.00
28648;BME280;17137;51.494;-0.262;2023-07-31T02:15:22;50076.19;;;-145.72;100.00
28648;BME280;17137;51.494;-0.262;2023-07-31T02:15:52;50087.28;;;-145.72;100.00
28648;BME280;17137;51.494;-0.262;2023-07-31T02:16:23;50090.00;;;-145.72;100.00
28648;BME280;17137;51.494;-0.262;2023-07-31T02:16:53;50084.08;;;-145.72;100.00
28648;BME280;17137;51.494;-0.262;2023-07-31T02:17:23;50088.27;;;-145.72;100.00
28648;BME280;17137;51.494;-0.262;2023-07-31T02:17:53;50081.49;;;-145.72;100.00
28648;BME280;17137;51.494;-0.262;2023-07-31T02:18:24;50080.13;;;-145.72;100.00
28648;BME280;17137;51.494;-0.262;2023-07-31T02:18:54;50076.19;;;-145.72;100.00
28648;BME280;17137;51.494;-0.262;2023-07-31T02:19:24;50060.54;;;-145.72;100.00
28648;BME280;17137;51.494;-0.262;2023-07-31T02:19:55;50081.98;;;-145.72;100.00
28648;BME280;17137;51.494;-0.262;2023-07-31T02:20:25;50084.45;;;-145.72;100.00
28648;BME280;17137;51.494;-0.262;2023-07-31T02:20:56;50092.09;;;-145.72;100.00
28648;BME280;17137;51.494;-0.262;2023-07-31T02:21:26;50079.39;;;-145.72;100.00
28648;BME280;17137;51.494;-0.262;2023-07-31T02:21:56;50075.45;;;-145.72;100.00
28648;BME280;17137;51.494;-0.262;2023-07-31T02:22:26;50073.60;;;-145.72;100.00
28648;BME280;17137;51.494;-0.262;2023-07-31T02:22:57;50074.71;;;-145.72;100.00
28648;BME280;17137;51.494;-0.262;2023-07-31T02:23:27;50077.30;;;-145.72;100.00
28648;BME280;17137;51.494;-0.262;2023-07-31T02:23:57;50076.93;;;-145.72;100.00
28648;BME280;17137;51.494;-0.262;2023-07-31T02:24:28;50093.08;;;-145.72;100.00
28648;BME280;17137;51.494;-0.262;2023-07-31T02:24:59;50074.59;;;-145.72;100.00
28648;BME280;17137;51.494;-0.262;2023-07-31T02:25:29;50092.83;;;-145.72;100.00
28648;BME280;17137;51.494;-0.262;2023-07-31T02:25:59;50092.34;;;-145.72;100.00
28648;BME280;17137;51.494;-0.262;2023-07-31T02:26:29;50093.45;;;-145.72;100.00
28648;BME280;17137;51.494;-0.262;2023-07-31T02:27:00;50087.28;;;-145.72;100.00
28648;BME280;17137;51.494;-0.262;2023-07-31T02:27:30;50091.84;;;-145.72;100.00
28648;BME280;17137;51.494;-0.262;2023-07-31T02:28:00;50089.63;;;-145.72;100.00
28648;BME280;17137;51.494;-0.262;2023-07-31T02:28:31;50091.47;;;-145.72;100.00
28648;BME280;17137;51.494;-0.262;2023-07-31T02:29:01;50095.67;;;-145.72;100.00
28648;BME280;17137;51.494;-0.262;2023-07-31T02:29:31;50091.47;;;-145.72;100.00
28648;BME280;17137;51.494;-0.262;2023-07-31T02:30:02;50093.69;;;-145.72;100.00
28648;BME280;17137;51.494;-0.262;2023-07-31T02:30:32;50092.71;;;-145.72;100.00
28648;BME280;17137;51.494;-0.262;2023-07-31T02:31:03;50088.27;;;-145.72;100.00
28648;BME280;17137;51.494;-0.262;2023-07-31T02:31:34;50086.42;;;-145.72;100.00
28648;BME280;17137;51.494;-0.262;2023-07-31T02:32:04;50087.16;;;-145.72;100.00
28648;BME280;17137;51.494;-0.262;2023-07-31T02:32:35;50067.81;;;-145.72;100.00
28648;BME280;17137;51.494;-0.262;2023-07-31T02:33:05;50085.43;;;-145.72;100.00
28648;BME280;17137;51.494;-0.262;2023-07-31T02:33:36;50083.22;;;-145.72;100.00
28648;BME280;17137;51.494;-0.262;2023-07-31T02:34:06;50084.57;;;-145.72;100.00
28648;BME280;17137;51.494;-0.262;2023-07-31T02:34:36;50071.51;;;-145.72;100.00
28648;BME280;17137;51.494;-0.262;2023-07-31T02:35:07;50075.45;;;-145.72;100.00
28648;BME280;17137;51.494;-0.262;2023-07-31T02:35:38;50082.23;;;-145.72;100.00
28648;BME280;17137;51.494;-0.262;2023-07-31T02:36:08;50079.64;;;-145.72;100.00
28648;BME280;17137;51.494;-0.262;2023-07-31T02:36:38;50084.20;;;-145.72;100.00
28648;BME280;17137;51.494;-0.262;2023-07-31T02:37:09;50083.96;;;-145.72;100.00
28648;BME280;17137;51.494;-0.262;2023-07-31T02:37:39;50076.56;;;-145.72;100.00
28648;BME280;17137;51.494;-0.262;2023-07-31T02:38:09;50085.43;;;-145.72;100.00
28648;BME280;17137;51.494;-0.262;2023-07-31T02:38:40;50073.11;;;-145.72;100.00